Time;durP1;ratioP1;P1;durP2;ratioP2;P2;SDS_P1;SDS_P2;PMS_P1;PMS_P2;Temp;Humidity;BMP_temperature;BMP_pressure;BME280_temperature;BME280_humidity;BME280_pressure;Samples;Min_cycle;Max_cycle;Signal;HPM_P1;HPM_P2
2021/03/22 00:02:09;;;;;;;105.00;59.78;;;51.70;2227.20;;;;;;4954319;29;20054;-78
2021/03/22 00:04:36;;;;;;;97.18;60.17;;;51.70;2227.20;;;;;;4937083;29;20047;-78
2021/03/22 00:07:08;;;;;;;57.05;36.22;;;51.70;2227.20;;;;;;4938655;29;20043;-78
2021/03/22 00:09:36;;;;;;;54.87;34.67;;;51.80;2227.20;;;;;;4933949;29;20031;-80
2021/03/22 00:12:17;;;;;;;55.17;38.33;;;51.80;2227.20;;;;;;4935015;29;20369;-78
2021/03/22 00:15:26;;;;;;;60.90;36.63;;;51.90;2227.20;;;;;;4934079;29;20034;-79
2021/03/22 00:18:32;;;;;;;44.63;27.80;;;51.80;2227.20;;;;;;4861268;29;20113;-79
2021/03/22 00:24:20;;;;;;;45.63;31.05;;;51.70;2227.20;;;;;;4851020;29;20074;-77
2021/03/22 00:26:47;;;;;;;56.30;30.23;;;51.70;2227.20;;;;;;4832534;29;20030;-76
2021/03/22 00:29:23;;;;;;;51.72;35.30;;;51.90;2227.20;;;;;;4851713;29;20045;-76
2021/03/22 00:31:51;;;;;;;67.03;44.65;;;51.80;2227.20;;;;;;4839328;29;20116;-78
2021/03/22 00:35:26;;;;;;;88.53;57.00;;;51.70;2227.20;;;;;;4844043;29;20093;-80
2021/03/22 00:38:52;;;;;;;94.70;59.75;;;51.70;2227.20;;;;;;4820986;29;20111;-80
2021/03/22 00:49:00;;;;;;;63.10;39.13;;;51.70;2227.20;;;;;;4820305;29;20574;-79
2021/03/22 00:55:10;;;;;;;77.88;39.38;;;51.70;2227.20;;;;;;4824723;29;20159;-80
2021/03/22 01:12:43;;;;;;;44.92;25.45;;;51.90;2227.20;;;;;;4849071;29;20053;-82
2021/03/22 01:19:51;;;;;;;45.53;24.98;;;51.90;2227.20;;;;;;4840361;29;20068;-79
2021/03/22 01:26:38;;;;;;;40.38;24.80;;;51.80;2227.20;;;;;;4807008;30;20045;-81
2021/03/22 01:30:10;;;;;;;39.63;26.13;;;51.80;2227.20;;;;;;4806831;29;20039;-80
2021/03/22 01:33:40;;;;;;;43.30;25.77;;;51.80;2227.20;;;;;;4794326;30;20044;-81
2021/03/22 01:37:36;;;;;;;52.63;34.75;;;51.90;2227.20;;;;;;4756567;30;20114;-81
2021/03/22 01:47:43;;;;;;;42.00;28.88;;;51.70;2227.20;;;;;;4732702;30;20089;-81
2021/03/22 01:51:34;;;;;;;37.40;24.73;;;51.80;2227.20;;;;;;4734844;30;20040;-81
2021/03/22 01:55:31;;;;;;;47.97;31.23;;;51.70;2227.20;;;;;;4737599;30;20026;-81
2021/03/22 01:58:40;;;;;;;30.83;17.90;;;51.70;2227.20;;;;;;4675925;30;20038;-80
2021/03/22 02:01:36;;;;;;;17.55;12.02;;;51.80;2227.20;;;;;;4694082;30;20026;-79
2021/03/22 02:08:19;;;;;;;36.17;32.35;;;51.80;2227.20;;;;;;4642204;30;20046;-79
2021/03/22 02:14:11;;;;;;;44.28;28.15;;;51.80;2227.20;;;;;;4661569;30;20036;-78
2021/03/22 02:17:21;;;;;;;49.45;26.00;;;51.80;2227.20;;;;;;4763050;30;20039;-79
2021/03/22 02:30:50;;;;;;;69.57;40.17;;;51.80;2227.20;;;;;;4803371;30;20034;-80
2021/03/22 02:34:32;;;;;;;48.17;29.00;;;51.70;2227.20;;;;;;4875352;29;20025;-81
2021/03/22 02:38:15;;;;;;;36.17;20.85;;;51.70;2227.20;;;;;;4839224;29;20039;-80
2021/03/22 02:52:11;;;;;;;55.75;29.85;;;51.70;2227.20;;;;;;4794794;29;20047;-80
2021/03/22 03:06:23;;;;;;;36.33;21.52;;;51.60;2227.20;;;;;;4803198;30;20103;-81
2021/03/22 03:09:36;;;;;;;39.17;25.25;;;51.70;2227.20;;;;;;4802864;30;20065;-80
2021/03/22 03:12:59;;;;;;;34.78;20.45;;;51.60;2227.20;;;;;;4804084;30;20059;-81
2021/03/22 03:16:53;;;;;;;34.83;21.05;;;51.60;2227.20;;;;;;4822204;29;20031;-81
2021/03/22 03:27:09;;;;;;;37.42;22.17;;;51.70;2227.20;;;;;;4821223;29;20042;-80
2021/03/22 03:33:53;;;;;;;50.85;30.83;;;51.70;2227.20;;;;;;4804753;30;20045;-80
2021/03/22 03:37:32;;;;;;;40.47;28.80;;;51.60;2227.20;;;;;;4768579;30;20036;-81
2021/03/22 03:40:52;;;;;;;42.03;31.80;;;51.60;2227.20;;;;;;4779690;30;20043;-81
2021/03/22 03:47:57;;;;;;;43.63;28.90;;;51.60;2227.20;;;;;;4800124;30;20066;-80
2021/03/22 03:51:29;;;;;;;84.82;53.88;;;51.60;2227.20;;;;;;4750802;30;20047;-80
2021/03/22 03:54:54;;;;;;;75.20;49.95;;;51.60;2227.20;;;;;;4783613;29;20017;-81
2021/03/22 04:01:56;;;;;;;63.60;36.10;;;51.60;2227.20;;;;;;4822301;29;20080;-81
2021/03/22 04:08:32;;;;;;;33.17;24.05;;;51.70;2227.20;;;;;;4771136;30;20070;-81
2021/03/22 04:11:35;;;;;;;37.85;26.60;;;51.60;2227.20;;;;;;4767726;30;20040;-81
2021/03/22 04:24:33;;;;;;;;;;;51.60;2227.20;;;;;;4792871;29;20084;-80
2021/03/22 04:35:06;;;;;;;43.05;22.60;;;51.70;2227.20;;;;;;4749604;30;20051;-80
2021/03/22 04:38:33;;;;;;;57.25;27.77;;;51.70;2227.20;;;;;;4748420;30;20047;-81
2021/03/22 04:42:14;;;;;;;52.28;28.98;;;51.70;2227.20;;;;;;4777703;30;20118;-81
2021/03/22 04:45:57;;;;;;;30.35;20.95;;;51.70;2227.20;;;;;;4769941;30;20040;-80
2021/03/22 04:59:45;;;;;;;57.92;31.08;;;51.70;2227.20;;;;;;4735727;30;20040;-80
2021/03/22 05:06:38;;;;;;;33.67;22.45;;;51.60;2227.20;;;;;;4752465;30;20087;-81
2021/03/22 05:13:16;;;;;;;36.58;25.85;;;51.70;2227.20;;;;;;4752974;30;20067;-81
2021/03/22 05:23:29;;;;;;;70.13;41.75;;;51.50;2227.20;;;;;;4773340;30;20063;-81
2021/03/22 09:22:26;;;;;;;110.40;67.95;;;102.50;2227.20;;;;;;4900378;29;20542;-80
2021/03/22 09:25:55;;;;;;;43.15;32.95;;;102.50;2227.20;;;;;;4883750;29;20036;-82
2021/03/22 09:50:04;;;;;;;55.30;37.13;;;102.50;2227.20;;;;;;4828522;29;20097;-81
2021/03/22 09:56:58;;;;;;;35.28;26.20;;;102.50;2227.20;;;;;;4825946;29;20033;-80
2021/03/22 10:04:02;;;;;;;40.53;35.65;;;77.70;2227.20;;;;;;4826493;29;20051;-80
2021/03/22 10:07:40;;;;;;;48.97;43.92;;;77.70;2227.20;;;;;;4825811;29;20038;-80
2021/03/22 10:17:52;;;;;;;21.15;15.23;;;77.70;2227.20;;;;;;4799154;30;20035;-80
2021/03/22 10:35:30;;;;;;;39.45;32.08;;;102.50;2227.20;;;;;;4818048;29;20108;-80
2021/03/22 10:38:30;;;;;;;36.88;26.95;;;102.50;2227.20;;;;;;4836352;29;20034;-80
2021/03/22 10:42:04;;;;;;;22.98;15.85;;;102.50;2227.20;;;;;;4858578;29;20038;-79
2021/03/22 10:52:07;;;;;;;26.25;17.35;;;102.50;2227.20;;;;;;4880606;29;20041;-81
2021/03/22 10:56:03;;;;;;;61.30;41.42;;;102.50;2227.20;;;;;;4827357;29;20144;-80
2021/03/22 11:03:18;;;;;;;26.42;20.23;;;102.50;2227.20;;;;;;4802131;29;20060;-79
2021/03/22 11:14:05;;;;;;;39.03;29.58;;;102.60;2227.20;;;;;;4787618;30;20034;-81
2021/03/22 11:31:37;;;;;;;23.08;19.02;;;102.60;2227.20;;;;;;4733828;30;20416;-79
2021/03/22 11:38:13;;;;;;;44.58;39.08;;;102.50;2227.20;;;;;;4716894;30;20563;-80
2021/03/22 11:41:43;;;;;;;36.72;32.97;;;102.60;2227.20;;;;;;4781787;29;20124;-81
2021/03/22 11:45:00;;;;;;;28.88;22.45;;;102.50;2227.20;;;;;;4807750;30;20058;-81
2021/03/22 11:58:52;;;;;;;40.13;29.88;;;102.60;2227.20;;;;;;4977508;29;20058;-81
2021/03/22 12:01:28;;;;;;;36.00;25.10;;;102.50;2227.20;;;;;;4954863;29;20031;-79
2021/03/22 12:04:06;;;;;;;40.40;27.10;;;102.50;2227.20;;;;;;4954503;29;20055;-80
2021/03/22 12:07:01;;;;;;;33.45;24.90;;;102.50;2227.20;;;;;;4969305;29;20111;-79
2021/03/22 12:09:33;;;;;;;44.33;32.75;;;102.60;2227.20;;;;;;4956836;29;20039;-78
2021/03/22 12:12:26;;;;;;;40.08;30.15;;;102.50;2227.20;;;;;;4951963;29;20039;-80
2021/03/22 12:15:38;;;;;;;31.25;22.52;;;102.60;2227.20;;;;;;4954089;29;20027;-79
2021/03/22 12:18:51;;;;;;;22.63;18.63;;;102.70;2227.20;;;;;;4972991;29;20035;-81
2021/03/22 12:21:19;;;;;;;26.92;20.73;;;102.70;2227.20;;;;;;4961141;28;20031;-80
2021/03/22 12:23:49;;;;;;;51.88;40.38;;;77.70;2227.20;;;;;;4955502;28;20018;-79
2021/03/22 12:26:33;;;;;;;39.78;28.30;;;102.70;2227.20;;;;;;4936619;29;20061;-85
2021/03/22 12:29:04;;;;;;;65.68;49.47;;;102.70;2227.20;;;;;;4970439;29;20040;-79
2021/03/22 12:31:57;;;;;;;64.45;45.70;;;102.60;2227.20;;;;;;4975646;28;20042;-80
2021/03/22 12:35:14;;;;;;;36.38;27.58;;;102.60;2227.20;;;;;;4954615;29;20035;-78
2021/03/22 12:38:18;;;;;;;28.27;22.48;;;102.60;2227.20;;;;;;4972642;29;20039;-79
2021/03/22 12:41:26;;;;;;;;;;;102.70;2227.20;;;;;;4945346;29;20115;-80
2021/03/22 12:54:02;;;;;;;90.35;49.85;;;102.80;2227.20;;;;;;4969208;29;20053;-78
2021/03/22 12:56:41;;;;;;;49.97;37.03;;;102.80;2227.20;;;;;;4958830;29;20023;-79
2021/03/22 12:59:32;;;;;;;81.18;43.05;;;102.90;2227.20;;;;;;4876932;29;20042;-80
2021/03/22 13:02:33;;;;;;;53.25;33.28;;;103.00;2227.20;;;;;;5019465;23;20059;-79
2021/03/22 13:05:28;;;;;;;39.55;26.02;;;103.00;2227.20;;;;;;4953386;29;20035;-79
2021/03/22 13:07:54;;;;;;;29.02;21.08;;;102.90;2227.20;;;;;;4953958;29;20027;-80
2021/03/22 13:10:44;;;;;;;30.05;22.40;;;102.80;2227.20;;;;;;4947044;29;20029;-79
2021/03/22 13:13:12;;;;;;;34.88;23.20;;;102.80;2227.20;;;;;;4948895;29;20405;-78
2021/03/22 13:15:46;;;;;;;29.27;20.35;;;102.80;2227.20;;;;;;4945811;29;20028;-78
2021/03/22 13:18:16;;;;;;;43.35;32.20;;;102.90;2227.20;;;;;;4924286;29;20026;-79
2021/03/22 13:20:44;;;;;;;44.67;29.55;;;102.90;2227.20;;;;;;4930677;29;20026;-79
2021/03/22 13:23:11;;;;;;;76.25;45.55;;;102.90;2227.20;;;;;;4930957;29;20035;-80
2021/03/22 13:25:39;;;;;;;77.57;48.15;;;102.50;2227.20;;;;;;4929847;29;20035;-79
2021/03/22 13:28:15;;;;;;;64.40;43.45;;;102.70;2227.20;;;;;;4931325;29;20119;-79
2021/03/22 13:30:42;;;;;;;62.00;42.08;;;102.80;2227.20;;;;;;4929070;29;20031;-79
2021/03/22 13:33:15;;;;;;;83.20;55.45;;;102.80;2227.20;;;;;;4926981;29;20036;-79
2021/03/22 13:35:41;;;;;;;91.60;57.10;;;102.80;2227.20;;;;;;4946243;29;20038;-78
2021/03/22 13:38:07;;;;;;;62.28;39.78;;;102.90;2227.20;;;;;;4930129;29;20035;-79
2021/03/22 13:40:33;;;;;;;73.53;51.17;;;102.90;2227.20;;;;;;4928958;29;20063;-79
2021/03/22 13:42:58;;;;;;;65.20;55.63;;;102.90;2227.20;;;;;;4930618;29;20059;-78
2021/03/22 13:45:53;;;;;;;92.03;77.00;;;102.90;2227.20;;;;;;4932967;29;20067;-79
2021/03/22 13:48:46;;;;;;;53.13;39.60;;;102.80;2227.20;;;;;;4925703;29;20040;-80
2021/03/22 13:51:49;;;;;;;68.37;47.73;;;102.60;2227.20;;;;;;4942845;29;20036;-80
2021/03/22 14:05:25;;;;;;;53.90;40.53;;;102.40;2227.20;;;;;;4889271;29;20085;-81
2021/03/22 14:07:55;;;;;;;52.92;38.72;;;102.40;2227.20;;;;;;4910088;29;20062;-80
2021/03/22 14:10:25;;;;;;;55.67;37.72;;;77.70;2227.20;;;;;;4965128;29;20043;-80
2021/03/22 14:12:53;;;;;;;66.20;44.35;;;77.70;2227.20;;;;;;4953014;29;20035;-79
2021/03/22 14:15:32;;;;;;;58.83;42.42;;;102.40;2227.20;;;;;;4969374;29;20061;-80
2021/03/22 14:18:05;;;;;;;48.47;32.50;;;77.70;2227.20;;;;;;4952065;29;20031;-80
2021/03/22 14:20:33;;;;;;;81.97;58.92;;;77.70;2227.20;;;;;;4966498;28;20083;-80
2021/03/22 14:23:02;;;;;;;54.78;40.80;;;77.70;2227.20;;;;;;4949856;29;20047;-80
2021/03/22 14:25:50;;;;;;;45.47;34.33;;;77.70;2227.20;;;;;;4953765;29;20117;-81
2021/03/22 14:28:23;;;;;;;43.13;31.67;;;77.70;2227.20;;;;;;4904976;29;20038;-79
2021/03/22 14:30:49;;;;;;;49.03;35.47;;;77.70;2227.20;;;;;;4951030;29;20050;-79
2021/03/22 14:33:22;;;;;;;57.55;39.25;;;77.70;2227.20;;;;;;4947171;29;20039;-80
2021/03/22 14:35:49;;;;;;;56.83;41.28;;;77.60;2227.20;;;;;;4949406;29;20023;-80
2021/03/22 14:38:39;;;;;;;55.83;40.40;;;77.60;2227.20;;;;;;4954834;29;20066;-80
2021/03/22 14:41:28;;;;;;;50.17;37.20;;;77.60;2227.20;;;;;;4952593;29;20137;-79
2021/03/22 14:43:54;;;;;;;60.33;45.15;;;77.70;2227.20;;;;;;4947012;29;20027;-80
2021/03/22 14:46:21;;;;;;;68.50;41.38;;;77.60;2227.20;;;;;;4945998;29;20031;-80
2021/03/22 14:48:47;;;;;;;60.42;42.67;;;77.70;2227.20;;;;;;4946900;29;20047;-80
2021/03/22 14:51:19;;;;;;;56.60;37.55;;;77.60;2227.20;;;;;;4919373;29;20028;-81
2021/03/22 14:55:07;;;;;;;49.17;35.45;;;77.70;2227.20;;;;;;4954257;29;20026;-81
2021/03/22 14:57:38;;;;;;;65.45;43.42;;;77.70;2227.20;;;;;;4925777;29;20073;-80
2021/03/22 15:00:18;;;;;;;64.55;43.75;;;77.70;2227.20;;;;;;4939128;29;20043;-80
2021/03/22 15:02:46;;;;;;;63.85;42.58;;;77.70;2227.20;;;;;;4939097;29;20049;-79
2021/03/22 15:05:13;;;;;;;65.32;45.45;;;77.70;2227.20;;;;;;4947562;29;20038;-80
2021/03/22 15:07:42;;;;;;;69.05;46.70;;;77.70;2227.20;;;;;;4962428;28;20036;-79
2021/03/22 15:10:09;;;;;;;59.67;43.03;;;77.70;2227.20;;;;;;4948742;29;20044;-80
2021/03/22 15:12:35;;;;;;;68.05;47.65;;;77.70;2227.20;;;;;;4948225;29;20038;-79
2021/03/22 15:15:02;;;;;;;79.47;51.78;;;77.70;2227.20;;;;;;4949536;29;20027;-79
2021/03/22 15:17:28;;;;;;;75.60;48.17;;;77.60;2227.20;;;;;;4951377;29;20027;-78
2021/03/22 15:19:53;;;;;;;71.90;46.60;;;77.70;2227.20;;;;;;4950621;29;20036;-79
2021/03/22 15:22:19;;;;;;;68.57;43.47;;;77.70;2227.20;;;;;;4948919;28;20152;-80
2021/03/22 15:24:45;;;;;;;70.97;44.92;;;77.70;2227.20;;;;;;4946060;29;20393;-79
2021/03/22 15:27:11;;;;;;;67.53;42.17;;;77.70;2227.20;;;;;;4947178;29;20026;-80
2021/03/22 15:29:54;;;;;;;68.80;43.92;;;77.70;2227.20;;;;;;4950209;29;20087;-80
2021/03/22 15:32:22;;;;;;;78.35;47.38;;;77.70;2227.20;;;;;;4949338;29;20044;-80
2021/03/22 15:34:49;;;;;;;87.93;51.80;;;77.60;2227.20;;;;;;4951116;29;20117;-80
2021/03/22 15:37:16;;;;;;;111.78;64.60;;;77.60;2227.20;;;;;;4951021;29;20031;-80
2021/03/22 15:40:13;;;;;;;104.97;63.25;;;77.70;2227.20;;;;;;4955802;29;20026;-80
2021/03/22 15:47:10;;;;;;;53.65;39.08;;;77.60;2227.20;;;;;;4939354;29;20143;-81
2021/03/22 17:45:06;;;;;;;58.08;37.35;;;77.40;2227.20;;;;;;4940020;29;20038;-80
2021/03/22 17:59:03;;;;;;;56.42;37.08;;;77.40;2227.20;;;;;;4937452;29;20039;-80
2021/03/22 18:02:27;;;;;;;59.97;38.92;;;77.40;2227.20;;;;;;4896490;29;20101;-80
2021/03/22 18:08:44;;;;;;;;;;;77.40;2227.20;;;;;;4890102;29;20109;-82
2021/03/22 18:11:11;;;;;;;36.35;25.55;;;77.30;2227.20;;;;;;4891500;29;19923;-80
2021/03/22 18:14:16;;;;;;;49.83;32.53;;;77.20;2227.20;;;;;;4876904;29;20037;-79
2021/03/22 18:17:47;;;;;;;42.92;28.90;;;77.30;2227.20;;;;;;4890897;29;20029;-79
2021/03/22 18:20:56;;;;;;;33.88;26.30;;;77.20;2227.20;;;;;;4930301;29;20085;-79
2021/03/22 18:23:54;;;;;;;41.05;29.83;;;77.20;2227.20;;;;;;4917763;29;20064;-79
2021/03/22 18:46:18;;;;;;;35.47;26.95;;;77.10;2227.20;;;;;;4951129;29;20083;-79
2021/03/22 18:48:45;;;;;;;30.20;23.35;;;77.10;2227.20;;;;;;4943884;29;20051;-80
2021/03/22 18:51:20;;;;;;;28.08;21.20;;;77.10;2227.20;;;;;;4942047;29;20523;-81
2021/03/22 18:54:23;;;;;;;32.45;23.13;;;77.00;2227.20;;;;;;4953355;29;20020;-80
2021/03/22 18:57:21;;;;;;;22.23;16.33;;;77.00;2227.20;;;;;;4932434;28;20052;-80
2021/03/22 18:59:47;;;;;;;20.35;14.70;;;77.00;2227.20;;;;;;4906267;29;20032;-78
2021/03/22 19:02:50;;;;;;;26.58;20.10;;;77.00;2227.20;;;;;;4979400;28;20062;-81
2021/03/22 20:24:08;;;;;;;57.35;31.88;;;76.90;2227.20;;;;;;4862910;29;20074;-81
2021/03/22 20:30:46;;;;;;;31.10;19.65;;;76.90;2227.20;;;;;;4859321;29;20097;-80
2021/03/22 20:37:32;;;;;;;28.23;20.20;;;52.10;2227.20;;;;;;4864883;29;20037;-80
2021/03/22 20:43:59;;;;;;;28.95;19.80;;;76.80;2227.20;;;;;;4820071;29;20552;-79
2021/03/22 20:53:41;;;;;;;35.75;24.52;;;52.10;2227.20;;;;;;4878516;29;20131;-80
2021/03/22 20:56:38;;;;;;;32.17;21.98;;;52.10;2227.20;;;;;;4856457;29;20071;-80
2021/03/22 20:59:56;;;;;;;37.85;26.80;;;52.10;2227.20;;;;;;4897974;29;20467;-79
2021/03/22 21:03:29;;;;;;;31.25;20.42;;;52.10;2227.20;;;;;;4886587;29;20029;-79
2021/03/22 21:07:14;;;;;;;35.13;20.90;;;52.10;2227.20;;;;;;4817810;29;20051;-80
2021/03/22 21:10:40;;;;;;;32.08;21.13;;;52.10;2227.20;;;;;;4803872;29;20046;-79
2021/03/22 21:20:59;;;;;;;31.35;20.25;;;52.10;2227.20;;;;;;4841807;29;20099;-80
2021/03/22 21:24:26;;;;;;;31.90;20.17;;;52.10;2227.20;;;;;;4816342;29;20077;-81
2021/03/22 21:31:19;;;;;;;25.98;17.55;;;52.10;2227.20;;;;;;4823340;29;20030;-79
2021/03/22 21:34:28;;;;;;;22.38;16.00;;;52.00;2227.20;;;;;;4814107;29;20043;-80
2021/03/22 21:37:45;;;;;;;52.90;30.13;;;52.10;2227.20;;;;;;4798313;29;20032;-80
2021/03/22 21:41:03;;;;;;;50.75;27.70;;;52.10;2227.20;;;;;;4788267;30;20060;-80
2021/03/22 21:47:10;;;;;;;58.75;37.35;;;76.80;2227.20;;;;;;4879899;29;20097;-80
2021/03/22 21:51:22;;;;;;;50.50;30.15;;;76.90;2227.20;;;;;;4843311;29;20046;-81
2021/03/22 22:19:32;;;;;;;37.72;25.42;;;76.80;2227.20;;;;;;4751197;30;20055;-81
2021/03/22 22:26:20;;;;;;;27.00;17.92;;;76.80;2227.20;;;;;;4727264;30;20113;-79
2021/03/22 22:29:29;;;;;;;32.80;21.35;;;76.80;2227.20;;;;;;4716135;30;20103;-80
2021/03/22 22:33:00;;;;;;;36.22;23.30;;;76.90;2227.20;;;;;;4712507;30;20045;-81
2021/03/22 22:35:46;;;;;;;42.90;24.63;;;76.90;2227.20;;;;;;4733234;30;20029;-76
2021/03/22 22:55:11;;;;;;;79.85;45.65;;;77.00;2227.20;;;;;;4900472;29;20044;-80
2021/03/22 22:59:02;;;;;;;57.67;38.53;;;77.00;2227.20;;;;;;4883100;29;20045;-80
2021/03/22 23:05:07;;;;;;;52.38;35.17;;;77.00;2227.20;;;;;;4880264;29;20114;-80
2021/03/22 23:07:32;;;;;;;70.88;46.70;;;77.00;2227.20;;;;;;4852957;29;20088;-77
2021/03/22 23:09:59;;;;;;;56.10;39.85;;;77.00;2227.20;;;;;;4889456;29;20033;-79
2021/03/22 23:12:32;;;;;;;59.63;40.72;;;77.00;2227.20;;;;;;4969205;29;20034;-79
2021/03/22 23:14:58;;;;;;;;;;;76.90;2227.20;;;;;;4934642;29;20011;-80
2021/03/22 23:17:24;;;;;;;42.25;31.27;;;76.90;2227.20;;;;;;4978264;23;19933;-79
2021/03/22 23:20:31;;;;;;;34.42;23.58;;;76.90;2227.20;;;;;;4973693;28;20062;-81
2021/03/22 23:23:42;;;;;;;43.03;30.05;;;76.90;2227.20;;;;;;4965078;28;20035;-80
2021/03/22 23:26:31;;;;;;;54.17;32.58;;;76.90;2227.20;;;;;;4990674;28;20035;-80
